Airfield :
LOGIN :

Register | Disclaimer

   EN    FR    IT 

 










Legend :    VFR   Marginal VFR   IFR   Intensive IFR   Very Intensive IFR
Visi :
Ceiling :
>= 8 km
>= 3000ft
5 to 8 km
1000 to 3000 ft
1500m to 5 km
500 to 1000 ft
800 to 1500m
200 to 500 ft
< 800m
< 200 ft
Symbols :   Thunderstorms  Fog  Heavy snow  Heavy precipitations  Wind > 20 kt
SIGMETs :     Misc.  Thunderstorms  Icing  Turbulence  Mountain Waves  Volcanic Ashes






- Airport Elevation : 2026 ft
- IATA code : TOJ


LETO - Madrid Torrejon

CURRENT METAR :
  • 180000Z 03004KT 010V070 CAVOK 03/01 Q1031 NOSIG

EXPIRED METARs :
  • 172300Z 03005KT CAVOK 03/01 Q1032 NOSIG
  • 172200Z 02007KT CAVOK 04/01 Q1032 NOSIG

TAF TAF LETO
Valid from the 18 at 00:00 until the 19 at 00:00 UTC


172300Z 1800/1824 VRB05KT CAVOK TX09/1815Z TN01/1806Z
PROB40
TEMPO 1804/1811 3000 RA BKN010
TEMPO 1811/1818 22010G20KT
PROB40
TEMPO 1812/1818 BKN008
TEMPO 1818/1824 3500 RA BR BKN008
PROB40
TEMPO 1818/1824 0800 BCFG BKN004
BECMG 1823/1824 01010KT



MET'MAP, your aeronautical weather chart ! - Copyright ORBIFLY December 2007 - Disclaimer

ORBIFLY MET'MAP TEAM :

Programming & Development : Alexandra Zaïnal
Concept & original design : Baudouin d'Aumeries
Assistance for programming : Marc-Olivier Méhu
Technical & hardware support : Manuel Goepfert

Contact : metmap@orbifly.com




SOURCES & CREDITS :

   NOAA